Time;durP1;ratioP1;P1;durP2;ratioP2;P2;SDS_P1;SDS_P2;PMS_P1;PMS_P2;Temp;Humidity;BMP_temperature;BMP_pressure;BME280_temperature;BME280_humidity;BME280_pressure;Samples;Min_cycle;Max_cycle;Signal;HPM_P1;HPM_P2
2021/07/30 09:30:45;;;;;;;5.03;4.60;;;24.30;99.90;;;;;;5025781;28;20655;-96
2021/07/30 09:36:17;;;;;;;5.33;4.93;;;24.60;99.90;;;;;;5051233;23;20726;-96
2021/07/30 09:39:15;;;;;;;4.83;4.53;;;24.70;99.90;;;;;;5012049;28;20660;-96
2021/07/30 09:42:05;;;;;;;5.30;4.80;;;24.80;99.90;;;;;;5008652;28;20664;-96
2021/07/30 09:56:07;;;;;;;5.67;5.27;;;25.40;99.90;;;;;;4993933;28;20649;-96
2021/07/30 10:10:03;;;;;;;6.03;5.43;;;25.80;99.90;;;;;;4864910;29;20662;-96
2021/07/30 10:26:12;;;;;;;6.43;5.77;;;26.70;98.60;;;;;;5013531;28;20657;-96
2021/07/30 10:32:29;;;;;;;12.70;6.00;;;27.20;97.60;;;;;;4998191;28;20613;-96
2021/07/30 10:50:55;;;;;;;7.53;6.93;;;28.30;94.90;;;;;;5007094;28;20682;-96
2021/07/30 10:56:49;;;;;;;6.80;5.80;;;28.90;93.20;;;;;;5007220;28;20624;-96
2021/07/30 10:59:58;;;;;;;8.73;8.13;;;29.10;92.60;;;;;;4995532;28;20666;-96
2021/07/30 11:02:26;;;;;;;10.60;9.97;;;29.40;92.40;;;;;;4983799;28;20728;-96
2021/07/30 11:05:07;;;;;;;11.50;10.90;;;29.70;92.50;;;;;;4984754;28;20660;-96
2021/07/30 11:07:37;;;;;;;11.07;10.37;;;30.10;91.80;;;;;;4989753;28;20622;-96
2021/07/30 11:10:18;;;;;;;10.30;9.70;;;30.40;91.20;;;;;;4988317;28;20657;-96
2021/07/30 11:12:50;;;;;;;11.57;10.87;;;30.70;89.80;;;;;;4988928;28;20632;-96
2021/07/30 11:15:19;;;;;;;10.57;9.60;;;30.90;87.60;;;;;;4985417;28;20661;-96
2021/07/30 11:17:49;;;;;;;11.40;10.60;;;30.90;87.50;;;;;;4978789;28;20700;-96
2021/07/30 11:20:22;;;;;;;14.40;13.40;;;30.80;86.40;;;;;;4979111;28;20664;-96
2021/07/30 11:22:54;;;;;;;10.37;9.57;;;30.60;86.80;;;;;;4984262;28;20629;-96
2021/07/30 11:25:31;;;;;;;11.47;10.87;;;30.70;86.60;;;;;;4986883;28;20638;-96
2021/07/30 11:28:00;;;;;;;11.47;10.87;;;30.80;87.70;;;;;;4967467;28;20713;-96
2021/07/30 11:30:31;;;;;;;12.87;11.97;;;30.60;90.00;;;;;;4974153;28;20666;-96
2021/07/30 11:33:00;;;;;;;7.03;6.53;;;30.30;88.70;;;;;;4973849;28;20724;-96
2021/07/30 11:35:32;;;;;;;7.20;6.60;;;30.20;90.30;;;;;;4978318;28;20633;-96
2021/07/30 11:38:06;;;;;;;7.27;6.57;;;30.20;90.40;;;;;;4976493;28;20658;-96
2021/07/30 11:40:38;;;;;;;6.17;5.67;;;30.30;89.30;;;;;;4974948;28;20713;-96
2021/07/30 11:43:07;;;;;;;12.57;11.67;;;30.20;90.00;;;;;;4972892;28;20645;-96
2021/07/30 11:45:34;;;;;;;11.93;11.33;;;30.10;88.20;;;;;;4982078;28;20752;-96
2021/07/30 11:48:10;;;;;;;8.17;7.57;;;29.90;90.70;;;;;;4995114;28;20661;-96
2021/07/30 11:50:38;;;;;;;8.00;7.30;;;29.70;90.20;;;;;;4994292;28;20660;-96
2021/07/30 11:53:08;;;;;;;7.70;7.10;;;29.60;90.70;;;;;;4992740;28;20661;-96
2021/07/30 11:55:37;;;;;;;8.67;7.97;;;29.60;90.70;;;;;;4982195;28;20633;-96
2021/07/30 11:58:32;;;;;;;8.40;7.80;;;29.40;91.40;;;;;;4980548;28;20757;-96
2021/07/30 12:01:14;;;;;;;8.83;8.33;;;29.30;92.40;;;;;;4991345;28;20626;-96
2021/07/30 12:04:00;;;;;;;9.73;9.23;;;29.40;93.10;;;;;;4987469;28;20976;-95
2021/07/30 12:06:28;;;;;;;9.93;9.33;;;29.50;92.40;;;;;;4982382;28;20673;-96
2021/07/30 12:09:12;;;;;;;10.13;9.53;;;29.80;91.50;;;;;;4982382;28;20764;-96
2021/07/30 12:14:34;;;;;;;8.43;7.90;;;31.00;90.30;;;;;;4986337;28;20689;-96
2021/07/30 12:19:58;;;;;;;6.47;5.97;;;31.90;86.50;;;;;;4978933;28;20657;-96
2021/07/30 12:22:39;;;;;;;6.03;5.47;;;32.00;86.30;;;;;;4990168;28;20637;-96
2021/07/30 12:28:18;;;;;;;6.43;6.03;;;31.60;86.30;;;;;;4973727;28;20672;-96
2021/07/30 12:30:49;;;;;;;6.40;5.80;;;31.40;87.00;;;;;;4982275;28;20620;-96
2021/07/30 12:33:29;;;;;;;6.97;6.30;;;31.40;87.20;;;;;;4981098;28;20638;-96
2021/07/30 12:36:10;;;;;;;6.50;5.90;;;31.20;86.00;;;;;;4987392;28;20637;-96
2021/07/30 12:38:57;;;;;;;6.27;5.70;;;31.30;88.00;;;;;;4985545;28;21064;-96
2021/07/30 12:45:00;;;;;;;7.00;6.40;;;32.00;85.20;;;;;;4973045;28;20633;-96
2021/07/30 12:47:27;;;;;;;7.53;6.87;;;32.20;81.60;;;;;;4986659;28;20645;-96
2021/07/30 12:49:56;;;;;;;8.47;6.17;;;32.20;80.60;;;;;;4983933;28;20642;-96
2021/07/30 12:52:24;;;;;;;6.77;6.17;;;32.00;81.00;;;;;;4984448;28;20664;-95
2021/07/30 12:55:05;;;;;;;6.80;6.30;;;31.80;83.50;;;;;;4982740;28;20630;-96
2021/07/30 12:57:58;;;;;;;9.43;6.33;;;31.70;80.80;;;;;;4975488;28;20644;-96
2021/07/30 13:00:33;;;;;;;6.57;6.07;;;31.50;84.20;;;;;;4978841;28;20721;-96
2021/07/30 13:03:00;;;;;;;6.57;5.97;;;31.30;86.10;;;;;;4980488;28;20732;-96
2021/07/30 13:05:30;;;;;;;6.10;5.70;;;31.20;84.00;;;;;;4977876;28;20639;-96
2021/07/30 13:08:00;;;;;;;8.40;6.10;;;31.00;85.00;;;;;;4979918;28;20675;-96
2021/07/30 13:10:28;;;;;;;6.50;6.00;;;30.90;85.30;;;;;;4980668;28;20637;-96
2021/07/30 13:12:58;;;;;;;6.67;6.03;;;30.80;85.20;;;;;;4974199;28;20678;-96
2021/07/30 13:15:36;;;;;;;6.77;6.20;;;31.00;84.00;;;;;;4979211;28;20628;-96
2021/07/30 13:18:04;;;;;;;7.10;6.30;;;30.90;84.90;;;;;;4972412;28;20654;-96
2021/07/30 13:20:32;;;;;;;6.10;5.70;;;30.90;84.20;;;;;;4970590;28;20645;-96
2021/07/30 13:22:59;;;;;;;6.83;6.33;;;30.70;85.70;;;;;;4966599;28;21076;-96
2021/07/30 13:25:28;;;;;;;6.90;6.40;;;30.60;85.60;;;;;;4969757;28;21050;-96
2021/07/30 13:27:55;;;;;;;6.90;6.30;;;30.60;84.80;;;;;;4965326;28;20635;-96
2021/07/30 13:30:22;;;;;;;6.93;6.43;;;31.20;84.20;;;;;;4967959;28;20748;-96
2021/07/30 13:32:50;;;;;;;7.50;6.80;;;32.10;82.70;;;;;;4970087;28;21144;-96
2021/07/30 13:35:17;;;;;;;7.97;6.67;;;32.90;80.80;;;;;;4968349;28;20632;-96
2021/07/30 13:37:44;;;;;;;7.83;7.23;;;33.80;79.10;;;;;;4974709;28;20709;-96
2021/07/30 13:40:12;;;;;;;8.10;7.40;;;34.50;77.20;;;;;;4969403;28;20708;-96
2021/07/30 13:42:39;;;;;;;7.90;7.20;;;35.30;72.30;;;;;;4973494;28;20686;-95
2021/07/30 13:45:44;;;;;;;7.20;6.50;;;35.70;70.90;;;;;;4971434;28;20714;-96
2021/07/30 13:48:13;;;;;;;7.53;6.97;;;36.20;69.10;;;;;;4965378;28;20629;-96
2021/07/30 13:50:40;;;;;;;7.10;6.60;;;35.80;69.20;;;;;;4968890;28;20708;-96
2021/07/30 13:53:07;;;;;;;6.60;6.10;;;35.80;68.30;;;;;;4972415;28;21381;-96
2021/07/30 13:55:33;;;;;;;7.13;6.53;;;36.00;67.10;;;;;;4968051;28;20652;-96
2021/07/30 13:58:00;;;;;;;7.57;6.90;;;36.40;66.80;;;;;;4969900;28;20645;-95
2021/07/30 14:00:27;;;;;;;6.77;6.17;;;36.30;67.80;;;;;;4969083;28;21161;-96
2021/07/30 14:02:54;;;;;;;6.60;6.10;;;36.40;67.90;;;;;;4974897;28;20849;-96
2021/07/30 14:05:23;;;;;;;7.30;5.87;;;36.60;67.40;;;;;;4972535;28;20644;-96
2021/07/30 14:07:49;;;;;;;6.43;6.03;;;37.10;65.20;;;;;;4971543;28;20734;-95
2021/07/30 14:10:17;;;;;;;6.70;6.20;;;36.70;65.60;;;;;;4970160;28;21231;-94
2021/07/30 14:12:45;;;;;;;6.80;6.30;;;36.20;66.90;;;;;;4972761;28;20770;-95
2021/07/30 14:15:15;;;;;;;6.33;5.80;;;36.10;65.80;;;;;;4964984;28;20672;-95
2021/07/30 14:17:42;;;;;;;6.50;6.00;;;35.60;67.80;;;;;;4976207;28;20636;-96
2021/07/30 14:20:12;;;;;;;5.93;5.53;;;35.90;68.10;;;;;;4966621;28;20676;-96
2021/07/30 14:22:41;;;;;;;5.90;5.40;;;36.10;67.20;;;;;;4971049;28;20753;-95
2021/07/30 14:25:09;;;;;;;6.93;6.23;;;35.70;68.10;;;;;;4963455;28;20633;-95
2021/07/30 14:27:36;;;;;;;7.20;6.60;;;35.20;68.60;;;;;;4968590;28;20209;-95
2021/07/30 14:30:03;;;;;;;10.60;5.97;;;34.80;71.30;;;;;;4969205;28;20628;-94
2021/07/30 14:32:31;;;;;;;7.13;6.60;;;34.50;68.70;;;;;;4968823;28;20751;-95
2021/07/30 14:34:58;;;;;;;7.03;6.53;;;34.30;69.30;;;;;;4955065;28;21251;-95
2021/07/30 14:37:25;;;;;;;7.80;7.20;;;34.20;68.50;;;;;;4960881;28;20687;-95
2021/07/30 14:39:53;;;;;;;7.50;6.90;;;34.90;67.70;;;;;;4962910;28;21216;-96
2021/07/30 14:42:20;;;;;;;6.10;5.80;;;35.00;68.00;;;;;;4962400;28;20795;-94
2021/07/30 14:44:47;;;;;;;6.80;6.20;;;34.70;70.00;;;;;;4967196;28;20639;-95
2021/07/30 14:47:14;;;;;;;7.27;6.57;;;34.20;70.30;;;;;;4968641;28;21079;-93
2021/07/30 14:49:42;;;;;;;6.33;5.80;;;34.20;70.20;;;;;;4964908;28;20633;-94
2021/07/30 14:52:10;;;;;;;6.57;6.07;;;34.60;70.10;;;;;;4970758;28;20664;-94
2021/07/30 14:54:37;;;;;;;6.43;5.83;;;35.20;68.20;;;;;;4968300;28;20663;-93
2021/07/30 14:57:06;;;;;;;6.10;5.60;;;36.00;68.10;;;;;;4966722;28;20676;-94
2021/07/30 14:59:33;;;;;;;6.70;6.30;;;36.70;66.20;;;;;;4965295;28;20751;-94
2021/07/30 15:01:59;;;;;;;7.50;7.00;;;37.20;65.00;;;;;;4966281;28;20727;-93
2021/07/30 15:04:26;;;;;;;6.60;6.20;;;37.50;64.50;;;;;;4973051;28;20659;-93
2021/07/30 15:06:53;;;;;;;8.93;5.77;;;37.80;63.40;;;;;;4961802;28;21198;-94
2021/07/30 15:09:20;;;;;;;6.50;6.00;;;38.40;63.00;;;;;;4963966;28;20205;-93
2021/07/30 15:11:48;;;;;;;7.07;6.47;;;38.10;62.30;;;;;;4961313;28;20241;-93
2021/07/30 15:14:16;;;;;;;7.53;6.93;;;38.20;61.70;;;;;;4967225;28;20276;-94
2021/07/30 15:16:44;;;;;;;5.63;5.13;;;38.00;61.80;;;;;;4964824;28;20210;-93
2021/07/30 15:19:12;;;;;;;6.20;5.70;;;38.00;62.40;;;;;;4958523;28;20572;-93
2021/07/30 15:21:39;;;;;;;6.07;5.57;;;37.70;63.00;;;;;;4958103;28;20227;-92
2021/07/30 15:24:06;;;;;;;6.70;6.13;;;37.10;62.20;;;;;;4965555;28;20209;-92
2021/07/30 15:26:33;;;;;;;6.87;6.27;;;36.50;62.30;;;;;;4964223;28;20630;-93
2021/07/30 15:29:01;;;;;;;7.15;6.40;;;35.90;62.20;;;;;;4961182;28;20199;-93
2021/07/30 15:31:29;;;;;;;5.90;5.50;;;36.00;61.70;;;;;;4966137;28;20589;-93
2021/07/30 15:33:56;;;;;;;7.23;6.53;;;35.40;63.90;;;;;;4962882;28;20216;-93
2021/07/30 15:36:26;;;;;;;6.13;5.63;;;34.80;65.00;;;;;;4964036;28;20204;-93
2021/07/30 15:38:53;;;;;;;7.40;6.93;;;34.20;64.80;;;;;;4960069;28;20979;-93
2021/07/30 15:41:23;;;;;;;6.67;6.17;;;33.80;66.20;;;;;;4963414;28;20215;-93
2021/07/30 15:43:50;;;;;;;10.47;7.97;;;33.70;66.50;;;;;;4958487;28;20220;-93
2021/07/30 15:46:18;;;;;;;7.43;6.83;;;33.40;66.80;;;;;;4964577;28;20626;-93
2021/07/30 15:48:46;;;;;;;7.70;7.20;;;33.00;68.10;;;;;;4963459;28;21013;-93
2021/07/30 15:51:15;;;;;;;7.43;6.83;;;32.60;72.60;;;;;;4967237;28;20641;-94
2021/07/30 15:53:43;;;;;;;7.67;6.90;;;32.10;74.70;;;;;;4965544;28;20638;-93
2021/07/30 15:56:10;;;;;;;8.03;7.30;;;31.70;76.10;;;;;;4963389;28;20662;-93
2021/07/30 15:58:39;;;;;;;8.30;6.40;;;31.50;77.90;;;;;;4963055;28;20613;-93
2021/07/30 16:01:07;;;;;;;8.20;5.70;;;31.20;80.50;;;;;;4963652;28;20637;-93
2021/07/30 16:03:34;;;;;;;7.83;7.13;;;30.90;82.50;;;;;;4970043;28;20632;-93
2021/07/30 16:06:02;;;;;;;7.53;6.93;;;30.70;84.00;;;;;;4960795;28;20982;-91
2021/07/30 16:08:29;;;;;;;7.57;6.93;;;30.40;85.80;;;;;;4953810;28;20614;-93
2021/07/30 16:11:10;;;;;;;7.73;7.03;;;30.10;86.80;;;;;;4962425;28;20632;-93
2021/07/30 16:13:38;;;;;;;8.03;7.33;;;29.90;88.30;;;;;;4962175;28;20633;-93
2021/07/30 16:16:05;;;;;;;6.73;6.23;;;29.60;88.80;;;;;;4966661;28;20636;-93
2021/07/30 16:18:32;;;;;;;6.97;6.47;;;29.40;89.90;;;;;;4963329;28;20629;-93
2021/07/30 16:20:59;;;;;;;7.37;6.67;;;29.20;90.20;;;;;;4965131;28;21293;-93
2021/07/30 16:23:27;;;;;;;6.30;5.80;;;29.10;90.50;;;;;;4961006;28;20673;-94
2021/07/30 16:44:17;;;;;;;12.17;10.97;;;27.30;99.80;;;;;;5572668;23;20673;-96
2021/07/30 16:46:45;;;;;;;6.50;6.10;;;27.20;99.90;;;;;;4962110;28;20732;-95
2021/07/30 16:49:12;;;;;;;10.43;9.83;;;27.10;99.90;;;;;;4960202;28;20619;-96
2021/07/30 16:51:41;;;;;;;10.90;10.30;;;27.00;99.90;;;;;;4961502;28;20680;-96
2021/07/30 16:54:19;;;;;;;12.63;11.83;;;26.80;99.90;;;;;;4975478;28;20636;-96
2021/07/30 16:56:51;;;;;;;12.60;11.80;;;26.70;99.90;;;;;;4975883;28;20685;-96
2021/07/30 16:59:21;;;;;;;8.77;6.70;;;26.60;99.90;;;;;;4974030;28;20654;-96
2021/07/30 17:01:48;;;;;;;8.10;6.60;;;26.50;99.90;;;;;;4973905;28;21185;-96
2021/07/30 17:04:15;;;;;;;7.43;6.73;;;26.50;99.90;;;;;;4967151;28;20739;-96
2021/07/30 17:06:43;;;;;;;6.77;6.10;;;26.40;99.90;;;;;;4957885;28;20661;-95
2021/07/30 17:09:10;;;;;;;8.93;8.03;;;26.30;99.90;;;;;;4961865;28;20625;-96
2021/07/30 17:11:37;;;;;;;11.50;8.13;;;26.20;99.90;;;;;;4959999;28;20670;-95
2021/07/30 17:14:04;;;;;;;7.43;6.73;;;26.00;99.90;;;;;;4970977;28;20995;-95
2021/07/30 17:16:33;;;;;;;8.83;8.10;;;25.80;99.90;;;;;;4965235;28;20658;-94
2021/07/30 17:19:01;;;;;;;8.77;6.63;;;25.70;99.90;;;;;;4964550;28;20693;-95
2021/07/30 17:21:28;;;;;;;7.97;7.13;;;25.50;99.90;;;;;;4959915;28;20734;-96
2021/07/30 17:23:55;;;;;;;9.00;8.10;;;25.40;99.90;;;;;;4962662;28;20729;-95
2021/07/30 17:26:25;;;;;;;9.17;8.30;;;25.20;99.90;;;;;;4962382;28;20636;-95
2021/07/30 17:28:52;;;;;;;6.90;6.40;;;25.10;99.90;;;;;;4963669;28;20645;-96
2021/07/30 17:31:20;;;;;;;7.73;7.00;;;24.90;99.90;;;;;;4968100;28;21073;-94
2021/07/30 17:33:48;;;;;;;8.77;8.00;;;24.80;99.90;;;;;;4959443;28;20645;-94
2021/07/30 17:36:15;;;;;;;7.77;7.13;;;24.60;99.90;;;;;;4962147;28;20953;-95
2021/07/30 17:38:42;;;;;;;9.20;7.53;;;24.50;99.90;;;;;;4968553;28;20990;-95
2021/07/30 17:41:09;;;;;;;10.00;9.10;;;24.40;99.90;;;;;;4967479;28;20665;-94
2021/07/30 17:43:37;;;;;;;9.73;8.83;;;24.30;99.90;;;;;;4958771;28;20644;-94
2021/07/30 17:46:05;;;;;;;9.33;8.60;;;24.20;99.90;;;;;;4964479;28;20609;-92
2021/07/30 17:48:33;;;;;;;9.93;9.13;;;24.10;99.90;;;;;;4959789;28;20697;-94
2021/07/30 17:51:02;;;;;;;8.40;7.80;;;24.00;99.90;;;;;;4961267;28;20973;-94
2021/07/30 17:53:29;;;;;;;10.90;8.07;;;24.00;99.90;;;;;;4957195;28;20640;-94
2021/07/30 17:55:57;;;;;;;8.97;8.23;;;23.90;99.90;;;;;;4959188;28;20622;-94
2021/07/30 17:58:24;;;;;;;8.10;7.40;;;23.80;99.90;;;;;;4960758;28;20669;-94
2021/07/30 18:00:51;;;;;;;11.07;8.03;;;23.70;99.90;;;;;;4959444;28;20666;-95
2021/07/30 18:03:25;;;;;;;8.27;7.47;;;23.70;99.90;;;;;;4963112;28;20637;-95
2021/07/30 18:05:52;;;;;;;8.30;7.60;;;23.60;99.90;;;;;;4966573;28;20624;-94
2021/07/30 18:08:20;;;;;;;7.77;7.20;;;23.60;99.90;;;;;;4968585;28;20650;-95
2021/07/30 18:10:48;;;;;;;11.80;8.70;;;23.60;99.90;;;;;;4966970;28;21173;-94
2021/07/30 18:13:16;;;;;;;8.50;7.87;;;23.50;99.90;;;;;;4964384;28;20629;-95
2021/07/30 18:15:43;;;;;;;8.63;7.83;;;23.40;99.90;;;;;;4958475;28;20642;-95
2021/07/30 18:18:10;;;;;;;8.10;7.40;;;23.50;99.90;;;;;;4954928;28;20646;-93
2021/07/30 18:20:36;;;;;;;9.80;7.90;;;23.40;99.90;;;;;;4961096;28;20661;-94
2021/07/30 18:23:03;;;;;;;8.50;7.87;;;23.40;99.90;;;;;;4959850;28;21173;-95
2021/07/30 18:25:33;;;;;;;11.13;7.30;;;23.30;99.90;;;;;;4961080;28;20641;-94
2021/07/30 18:28:00;;;;;;;7.63;6.93;;;23.30;99.90;;;;;;4956659;28;21299;-94
2021/07/30 18:30:27;;;;;;;7.40;6.50;;;23.20;99.90;;;;;;4959982;28;20625;-96
2021/07/30 18:32:54;;;;;;;7.87;7.27;;;23.20;99.90;;;;;;4961356;28;21276;-95
2021/07/30 18:35:21;;;;;;;7.77;7.07;;;23.00;99.90;;;;;;4958023;28;21259;-95
2021/07/30 18:37:48;;;;;;;8.53;6.30;;;22.90;99.90;;;;;;4959445;28;20737;-94
2021/07/30 18:40:16;;;;;;;8.10;7.30;;;22.80;99.90;;;;;;4961442;28;20661;-95
2021/07/30 18:42:45;;;;;;;6.30;5.80;;;22.70;99.90;;;;;;4958461;28;20641;-95
2021/07/30 18:45:12;;;;;;;7.77;6.27;;;22.70;99.90;;;;;;4961112;28;21173;-95
2021/07/30 18:47:39;;;;;;;7.97;7.13;;;22.60;99.90;;;;;;4960853;28;21199;-94
2021/07/30 18:50:07;;;;;;;7.10;5.90;;;22.40;99.90;;;;;;4955108;28;20622;-94
2021/07/30 18:52:35;;;;;;;6.90;6.27;;;22.30;99.90;;;;;;4954110;28;20648;-94
2021/07/30 18:55:03;;;;;;;7.20;6.20;;;22.20;99.90;;;;;;4957400;28;21374;-95
2021/07/30 18:57:30;;;;;;;7.20;6.50;;;22.10;99.90;;;;;;4960144;28;21564;-94
2021/07/30 18:59:58;;;;;;;8.10;6.50;;;21.90;99.90;;;;;;4958455;28;20666;-95
2021/07/30 19:02:25;;;;;;;6.60;6.00;;;21.90;99.90;;;;;;4957499;28;20632;-95
2021/07/30 19:04:52;;;;;;;8.97;6.40;;;21.80;99.90;;;;;;4956367;28;21207;-95
2021/07/30 19:07:19;;;;;;;7.30;6.27;;;21.70;99.90;;;;;;4959006;28;20671;-95
2021/07/30 19:09:46;;;;;;;7.90;6.70;;;21.60;99.90;;;;;;4955927;28;21246;-94
2021/07/30 19:12:14;;;;;;;6.07;5.57;;;21.50;99.90;;;;;;4959692;28;20625;-95
2021/07/30 19:14:40;;;;;;;6.10;5.60;;;21.50;99.90;;;;;;4963654;28;20646;-95
2021/07/30 19:17:09;;;;;;;6.67;5.93;;;21.40;99.90;;;;;;4956348;28;20662;-95
2021/07/30 19:19:35;;;;;;;5.80;5.27;;;21.40;99.90;;;;;;4953782;28;21087;-95
2021/07/30 19:22:02;;;;;;;6.97;6.47;;;21.40;99.90;;;;;;4959901;28;20656;-95
2021/07/30 19:24:29;;;;;;;6.47;5.57;;;21.30;99.90;;;;;;4959210;28;20634;-96
2021/07/30 19:26:57;;;;;;;7.07;6.47;;;21.30;99.90;;;;;;4952681;28;20661;-94
2021/07/30 19:29:24;;;;;;;6.73;6.10;;;21.20;99.90;;;;;;4958733;28;20644;-96
2021/07/30 19:31:51;;;;;;;13.10;6.83;;;21.00;99.90;;;;;;4954577;28;20630;-94
2021/07/30 19:34:20;;;;;;;7.27;6.00;;;21.00;99.90;;;;;;4955875;28;20633;-95
2021/07/30 19:36:47;;;;;;;6.93;5.33;;;20.90;99.90;;;;;;4955956;28;20669;-94
2021/07/30 19:39:14;;;;;;;7.03;5.47;;;20.80;99.90;;;;;;4958974;28;20634;-94
2021/07/30 19:41:41;;;;;;;6.47;5.80;;;20.70;99.90;;;;;;4957473;28;20631;-94
2021/07/30 19:44:08;;;;;;;7.13;6.40;;;20.60;99.90;;;;;;4952013;28;20670;-95
2021/07/30 19:46:35;;;;;;;6.80;6.20;;;20.60;99.90;;;;;;4956653;28;20644;-94
2021/07/30 19:49:02;;;;;;;6.57;6.00;;;20.60;99.90;;;;;;4954756;28;20630;-95
2021/07/30 19:51:31;;;;;;;6.30;5.80;;;20.60;99.90;;;;;;4963254;28;21219;-96
2021/07/30 19:53:59;;;;;;;7.27;6.57;;;20.70;99.90;;;;;;4957383;28;20731;-95
2021/07/30 19:56:26;;;;;;;6.53;5.90;;;20.70;99.90;;;;;;4955565;28;20677;-95
2021/07/30 19:58:53;;;;;;;5.60;5.10;;;20.60;99.90;;;;;;4959409;28;20657;-95
2021/07/30 20:01:22;;;;;;;7.07;6.47;;;20.60;99.90;;;;;;4974815;28;20684;-96
2021/07/30 20:04:01;;;;;;;7.00;6.40;;;20.60;99.90;;;;;;4979364;28;20665;-96
2021/07/30 20:06:36;;;;;;;7.07;6.47;;;20.70;99.90;;;;;;4967391;28;20632;-93
2021/07/30 20:09:03;;;;;;;6.50;5.90;;;20.70;99.90;;;;;;4972281;28;20618;-93
2021/07/30 20:11:30;;;;;;;6.37;5.70;;;20.70;99.90;;;;;;4956439;28;21184;-94
2021/07/30 20:13:57;;;;;;;6.30;5.70;;;20.70;99.90;;;;;;4961172;28;20658;-95
2021/07/30 20:16:25;;;;;;;6.43;5.53;;;20.80;99.90;;;;;;4969277;28;20625;-96
